Qian Gorlos, China
Current Conditions -  °F | °C
As of 5:00 AM on Thursday 18 Dec 2014 (Local Time) from ZYHB Reporting Station
Smoke Smoke  
Wind Chill: -40°   Ceiling: Unl
Heat Index: -26°   Visibility: 2.5mi
Dew Point: -31°   Wind: 4mph
Humidity: 76%   Direction: 180°S
Pressure: 30.53"   Gusts: NA
Location:  45.12°N, 124.83°E
Report Text: ZYHB 172100Z 18002MPS 4000 FU NSC M32/M35 Q1034 NOSIG
Loading
Personal Weather Stations






























Interactive Weather Map New forecast layout! Learn more

10-Day Weather Forecast

Advertisements
Track Severe Weather on mobile